createdAt,value
2019-05-06T00:01:28.451Z,99839.70
2019-05-06T00:04:00.852Z,99845.45
2019-05-06T00:06:29.192Z,99837.02
2019-05-06T00:08:58.547Z,99834.32
2019-05-06T00:11:30.490Z,99833.09
2019-05-06T00:14:00.163Z,99828.54
2019-05-06T00:16:29.629Z,99834.44
2019-05-06T00:18:59.203Z,99833.56
2019-05-06T00:21:29.546Z,99833.56
2019-05-06T00:23:59.001Z,99838.95
2019-05-06T00:26:47.907Z,99833.09
2019-05-06T00:29:20.491Z,99831.34
2019-05-06T00:31:50.032Z,99843.93
2019-05-06T00:34:19.578Z,99842.70
2019-05-06T00:36:49.041Z,99834.62
2019-05-06T00:39:20.057Z,99844.52
2019-05-06T00:41:51.058Z,99845.50
2019-05-06T00:44:20.988Z,99845.12
2019-05-06T00:46:50.442Z,99853.20
2019-05-06T00:49:20.214Z,99852.33
2019-05-06T00:51:49.899Z,99850.52
2019-05-06T00:54:24.846Z,99852.70
2019-05-06T00:56:57.129Z,99852.80
2019-05-06T00:59:26.709Z,99848.87
2019-05-06T01:01:57.861Z,99854.16
2019-05-06T01:04:27.365Z,99856.48
2019-05-06T01:06:56.835Z,99856.48
2019-05-06T01:09:26.271Z,99858.77
2019-05-06T01:11:57.750Z,99858.77
2019-05-06T01:14:37.914Z,99858.41
2019-05-06T01:17:07.413Z,99851.28
2019-05-06T01:19:38.230Z,99852.16
2019-05-06T01:22:09.819Z,99853.97
2019-05-06T01:24:41.552Z,99852.27
2019-05-06T01:27:12.071Z,99844.19
2019-05-06T01:29:44.024Z,99844.19
2019-05-06T01:32:14.879Z,99841.58
2019-05-06T01:34:44.707Z,99846.38
2019-05-06T01:37:16.949Z,99845.02
2019-05-06T01:39:48.212Z,99846.88
2019-05-06T01:42:19.992Z,99854.08
2019-05-06T01:44:49.586Z,99857.64
2019-05-06T01:47:23.641Z,99854.55
2019-05-06T01:49:53.799Z,99858.59
2019-05-06T01:52:24.149Z,99855.53
2019-05-06T01:54:54.318Z,99852.08
2019-05-06T01:57:24.539Z,99851.97
2019-05-06T01:59:54.383Z,99852.45
2019-05-06T02:02:24.135Z,99856.02
2019-05-06T02:04:54.237Z,99852.84
2019-05-06T02:07:24.279Z,99852.45
2019-05-06T02:09:55.675Z,99847.06
2019-05-06T02:12:25.358Z,99856.02
2019-05-06T02:14:54.972Z,99844.38
2019-05-06T02:17:26.052Z,99849.75
2019-05-06T02:19:55.496Z,99853.90
2019-05-06T02:22:34.479Z,99856.12
2019-05-06T02:25:06.416Z,99859.75
2019-05-06T02:27:37.229Z,99852.19
2019-05-06T02:30:18.427Z,99859.75
2019-05-06T02:33:05.793Z,99859.39
2019-05-06T02:35:38.474Z,99867.06
2019-05-06T02:38:09.699Z,99872.84
2019-05-06T02:40:39.351Z,99863.90
2019-05-06T02:43:13.420Z,99860.34
2019-05-06T02:45:39.919Z,99871.50
2019-05-06T02:48:22.729Z,99866.23
2019-05-06T02:50:53.462Z,99860.34
2019-05-06T02:53:23.741Z,99864.01
2019-05-06T02:55:53.530Z,99866.23
2019-05-06T02:58:23.763Z,99863.61
2019-05-06T03:00:54.025Z,99868.99
2019-05-06T03:03:25.433Z,99862.77
2019-05-06T03:05:54.897Z,99863.13
2019-05-06T03:08:24.357Z,99860.92
2019-05-06T03:10:53.923Z,99852.48
2019-05-06T03:13:23.951Z,99859.20
2019-05-06T03:15:54.454Z,99857.86
2019-05-06T03:18:24.012Z,99849.90
2019-05-06T03:20:53.498Z,99858.84
2019-05-06T03:23:24.721Z,99855.86
2019-05-06T03:25:54.289Z,99861.13
2019-05-06T03:28:24.344Z,99855.75
2019-05-06T03:30:57.066Z,99857.57
2019-05-06T03:33:46.858Z,99861.13
2019-05-06T03:36:13.711Z,99856.22
2019-05-06T03:38:33.414Z,99861.24
2019-05-06T03:41:35.278Z,99853.75
2019-05-06T03:44:04.910Z,99859.61
2019-05-06T03:46:54.226Z,99863.64
2019-05-06T03:49:25.520Z,99865.38
2019-05-06T03:51:56.565Z,99860.08
2019-05-06T03:54:27.222Z,99862.77
2019-05-06T03:56:57.524Z,99858.37
2019-05-06T03:59:28.128Z,99866.91
2019-05-06T04:01:58.877Z,99871.82
2019-05-06T04:04:29.156Z,99873.16
2019-05-06T04:06:59.615Z,99871.92
2019-05-06T04:09:36.378Z,99873.27
2019-05-06T04:12:03.560Z,99876.91
2019-05-06T04:14:35.199Z,99876.91
2019-05-06T04:17:07.218Z,99876.91
2019-05-06T04:19:48.647Z,99877.41
2019-05-06T04:22:23.377Z,99875.20
2019-05-06T04:24:54.133Z,99877.89
2019-05-06T04:27:44.081Z,99880.58
2019-05-06T04:30:14.586Z,99881.52
2019-05-06T04:32:45.288Z,99880.18
2019-05-06T04:35:16.085Z,99879.81
2019-05-06T04:37:46.880Z,99877.99
2019-05-06T04:40:18.652Z,99882.03
2019-05-06T04:42:49.159Z,99871.34
2019-05-06T04:45:23.279Z,99883.45
2019-05-06T04:47:53.692Z,99880.39
2019-05-06T04:50:24.507Z,99887.59
2019-05-06T04:52:56.518Z,99889.80
2019-05-06T04:55:27.119Z,99886.72
2019-05-06T04:57:57.627Z,99895.66
2019-05-06T05:00:27.901Z,99900.56
2019-05-06T05:02:57.888Z,99889.91
2019-05-06T05:05:28.273Z,99900.17
2019-05-06T05:07:58.687Z,99899.70
2019-05-06T05:10:32.286Z,99906.52
2019-05-06T05:13:12.557Z,99902.49
2019-05-06T05:15:59.100Z,99902.02
2019-05-06T05:18:43.190Z,99908.25
2019-05-06T05:21:13.624Z,99914.58
2019-05-06T05:23:45.241Z,99917.48
2019-05-06T05:26:15.880Z,99920.17
2019-05-06T05:28:46.017Z,99919.40
2019-05-06T05:31:16.388Z,99919.21
2019-05-06T05:33:46.735Z,99924.80
2019-05-06T05:36:16.789Z,99914.11
2019-05-06T05:38:47.318Z,99923.27
2019-05-06T05:41:17.454Z,99917.59
2019-05-06T05:43:52.578Z,99925.77
2019-05-06T05:46:24.295Z,99922.67
2019-05-06T05:48:58.913Z,99919.14
2019-05-06T05:51:28.951Z,99917.69
2019-05-06T05:54:02.220Z,99923.65
2019-05-06T05:56:34.902Z,99922.30
2019-05-06T05:59:04.985Z,99917.14
2019-05-06T06:01:36.386Z,99923.35
2019-05-06T06:04:07.007Z,99925.94
2019-05-06T06:06:37.411Z,99930.27
2019-05-06T06:09:09.888Z,99934.88
2019-05-06T06:11:50.415Z,99932.40
2019-05-06T06:14:39.259Z,99928.94
2019-05-06T06:17:27.624Z,99936.13
2019-05-06T06:19:59.678Z,99934.79
2019-05-06T06:22:33.101Z,99938.92
2019-05-06T06:25:04.428Z,99938.05
2019-05-06T06:27:36.424Z,99936.70
2019-05-06T06:30:07.817Z,99943.91
2019-05-06T06:32:38.074Z,99939.50
2019-05-06T06:35:12.050Z,99943.06
2019-05-06T06:37:49.624Z,99944.41
2019-05-06T06:40:22.707Z,99943.74
2019-05-06T06:42:54.622Z,99940.18
2019-05-06T06:45:26.499Z,99952.75
2019-05-06T06:47:56.866Z,99953.16
2019-05-06T06:50:27.479Z,99949.77
2019-05-06T06:52:57.700Z,99952.08
2019-05-06T06:55:27.772Z,99953.33
2019-05-06T06:57:59.469Z,99946.30
2019-05-06T07:00:33.578Z,99949.19
2019-05-06T07:03:21.828Z,99944.78
2019-05-06T07:05:56.626Z,99950.64
2019-05-06T07:08:36.675Z,99960.99
2019-05-06T07:10:58.970Z,99948.25
2019-05-06T07:13:29.339Z,99949.30
2019-05-06T07:15:59.559Z,99953.70
2019-05-06T07:18:33.177Z,99951.20
2019-05-06T07:21:06.774Z,99952.46
2019-05-06T07:23:38.337Z,99945.64
2019-05-06T07:26:11.983Z,99952.09
2019-05-06T07:28:43.695Z,99947.85
2019-05-06T07:31:21.829Z,99947.37
2019-05-06T07:33:46.159Z,99959.58
2019-05-06T07:36:16.617Z,99957.06
2019-05-06T07:38:56.067Z,99955.92
2019-05-06T07:41:32.823Z,99958.51
2019-05-06T07:44:04.549Z,99949.88
2019-05-06T07:46:52.340Z,99949.20
2019-05-06T07:49:23.501Z,99955.05
2019-05-06T07:51:53.736Z,99953.63
2019-05-06T07:54:23.817Z,99952.28
2019-05-06T07:56:54.242Z,99948.83
2019-05-06T07:59:27.507Z,99945.27
2019-05-06T08:01:57.607Z,99948.25
2019-05-06T08:04:28.002Z,99946.80
2019-05-06T08:06:58.472Z,99946.80
2019-05-06T08:09:28.520Z,99940.45
2019-05-06T08:11:59.055Z,99939.52
2019-05-06T08:14:32.918Z,99935.48
2019-05-06T08:17:04.733Z,99942.20
2019-05-06T08:19:34.264Z,99945.83
2019-05-06T08:22:16.571Z,99939.12
2019-05-06T08:24:46.946Z,99937.77
2019-05-06T08:27:17.517Z,99942.77
2019-05-06T08:29:47.969Z,99932.79
2019-05-06T08:32:22.633Z,99939.30
2019-05-06T08:34:52.796Z,99934.14
2019-05-06T08:37:27.488Z,99935.95
2019-05-06T08:39:59.936Z,99934.70
2019-05-06T08:42:33.033Z,99935.38
2019-05-06T08:45:06.692Z,99932.98
2019-05-06T08:47:35.587Z,99932.37
2019-05-06T08:50:12.797Z,99930.09
2019-05-06T08:53:00.968Z,99925.66
2019-05-06T08:55:33.057Z,99923.17
2019-05-06T08:58:03.432Z,99922.70
2019-05-06T09:00:37.207Z,99922.49
2019-05-06T09:03:07.347Z,99925.28
2019-05-06T09:05:37.622Z,99916.26
2019-05-06T09:08:08.144Z,99925.86
2019-05-06T09:10:38.563Z,99918.20
2019-05-06T09:13:09.217Z,99913.77
2019-05-06T09:15:39.339Z,99921.92
2019-05-06T09:19:04.314Z,99920.00
2019-05-06T09:21:34.001Z,99921.74
2019-05-06T09:24:04.006Z,99911.66
2019-05-06T09:26:43.184Z,99910.67
2019-05-06T09:29:32.382Z,99901.64
2019-05-06T09:32:06.502Z,99910.30
2019-05-06T09:34:43.103Z,99904.14
2019-05-06T09:37:14.636Z,99901.34
2019-05-06T09:39:45.653Z,99903.48
2019-05-06T09:42:16.407Z,99895.98
2019-05-06T09:44:50.391Z,99899.72
2019-05-06T09:47:24.707Z,99898.02
2019-05-06T09:49:56.636Z,99893.02
2019-05-06T09:52:28.249Z,99892.53
2019-05-06T09:55:03.522Z,99906.38
2019-05-06T09:57:35.708Z,99904.05
2019-05-06T10:00:06.985Z,99898.09
2019-05-06T10:02:37.700Z,99901.26
2019-05-06T10:05:08.066Z,99904.25
2019-05-06T10:07:38.436Z,99906.06
2019-05-06T10:10:08.682Z,99904.61
2019-05-06T10:12:39.126Z,99911.27
2019-05-06T10:15:09.267Z,99905.02
2019-05-06T10:17:39.719Z,99908.45
2019-05-06T10:20:09.855Z,99909.24
2019-05-06T10:22:42.911Z,99902.23
2019-05-06T10:25:12.245Z,99898.31
2019-05-06T10:27:44.152Z,99900.98
2019-05-06T10:30:15.874Z,99900.41
2019-05-06T10:32:47.950Z,99896.86
2019-05-06T10:35:18.719Z,99900.04
2019-05-06T10:38:19.566Z,99896.00
2019-05-06T10:41:04.037Z,99893.87
2019-05-06T10:43:58.556Z,99895.01
2019-05-06T10:46:28.812Z,99901.56
2019-05-06T10:48:59.033Z,99896.84
2019-05-06T10:51:37.080Z,99896.47
2019-05-06T10:54:07.217Z,99897.89
2019-05-06T10:56:49.817Z,99894.27
2019-05-06T10:59:12.977Z,99890.12
2019-05-06T11:01:42.754Z,99886.00
2019-05-06T11:04:13.598Z,99884.27
2019-05-06T11:06:44.120Z,99883.88
2019-05-06T11:09:14.459Z,99879.27
2019-05-06T11:11:44.657Z,99880.41
2019-05-06T11:14:14.731Z,99881.17
2019-05-06T11:16:45.074Z,99873.61
2019-05-06T11:19:15.274Z,99873.88
2019-05-06T11:21:46.024Z,99865.44
2019-05-06T11:24:16.287Z,99864.75
2019-05-06T11:26:46.708Z,99861.77
2019-05-06T11:29:21.476Z,99858.31
2019-05-06T11:32:02.743Z,99858.42
2019-05-06T11:34:34.888Z,99863.03
2019-05-06T11:37:14.800Z,99855.44
2019-05-06T11:39:44.165Z,99859.39
2019-05-06T11:42:28.109Z,99863.03
2019-05-06T11:44:46.274Z,99861.50
2019-05-06T11:47:17.008Z,99852.66
2019-05-06T11:49:48.932Z,99854.88
2019-05-06T11:52:19.327Z,99855.28
2019-05-06T11:54:49.756Z,99854.22
2019-05-06T11:57:20.075Z,99853.84
2019-05-06T11:59:52.582Z,99857.70
2019-05-06T12:02:24.097Z,99854.11
2019-05-06T12:04:54.370Z,99859.10
2019-05-06T12:07:24.919Z,99868.49
2019-05-06T12:09:55.434Z,99861.77
2019-05-06T12:13:02.826Z,99859.66
2019-05-06T12:15:33.581Z,99859.81
2019-05-06T12:18:04.366Z,99860.98
2019-05-06T12:20:34.490Z,99862.80
2019-05-06T12:23:04.871Z,99862.69
2019-05-06T12:25:35.439Z,99853.78
2019-05-06T12:28:05.878Z,99853.28
2019-05-06T12:30:36.139Z,99853.20
2019-05-06T12:33:08.058Z,99857.05
2019-05-06T12:35:39.900Z,99855.99
2019-05-06T12:38:26.537Z,99852.36
2019-05-06T12:40:44.009Z,99856.29
2019-05-06T12:43:16.088Z,99850.22
2019-05-06T12:45:53.793Z,99850.58
2019-05-06T12:48:28.875Z,99854.44
2019-05-06T12:51:03.672Z,99856.36
2019-05-06T12:53:33.871Z,99860.77
2019-05-06T12:56:03.903Z,99860.88
2019-05-06T12:58:34.403Z,99851.86
2019-05-06T13:01:05.662Z,99849.42
2019-05-06T13:03:35.910Z,99848.95
2019-05-06T13:06:08.283Z,99853.86
2019-05-06T13:08:55.322Z,99847.61
2019-05-06T13:11:09.573Z,99849.82
2019-05-06T13:13:56.139Z,99851.83
2019-05-06T13:16:12.581Z,99843.57
2019-05-06T13:18:47.653Z,99847.09
2019-05-06T13:21:14.648Z,99836.80
2019-05-06T13:23:46.712Z,99838.59
2019-05-06T13:26:16.860Z,99834.95
2019-05-06T13:28:48.465Z,99840.33
2019-05-06T13:31:21.692Z,99827.23
2019-05-06T13:33:57.122Z,99836.30
2019-05-06T13:36:27.553Z,99820.14
2019-05-06T13:39:13.397Z,99827.64
2019-05-06T13:41:29.706Z,99833.28
2019-05-06T13:44:04.069Z,99831.31
2019-05-06T13:46:35.725Z,99823.28
2019-05-06T13:49:05.669Z,99832.52
2019-05-06T13:51:38.734Z,99824.59
2019-05-06T13:54:08.729Z,99821.20
2019-05-06T13:56:38.706Z,99820.66
2019-05-06T13:59:08.665Z,99822.55
2019-05-06T14:01:43.902Z,99817.54
2019-05-06T14:04:14.657Z,99818.52
2019-05-06T14:06:45.479Z,99819.68
2019-05-06T14:09:28.610Z,99818.05
2019-05-06T14:11:47.281Z,99823.53
2019-05-06T14:14:17.675Z,99823.92
2019-05-06T14:16:47.920Z,99825.93
2019-05-06T14:19:17.956Z,99826.63
2019-05-06T14:21:48.119Z,99824.30
2019-05-06T14:24:18.225Z,99826.59
2019-05-06T14:26:57.653Z,99820.59
2019-05-06T14:29:28.591Z,99822.81
2019-05-06T14:31:59.761Z,99821.58
2019-05-06T14:34:29.843Z,99827.25
2019-05-06T14:37:00.262Z,99819.57
2019-05-06T14:39:49.037Z,99818.81
2019-05-06T14:42:04.316Z,99820.34
2019-05-06T14:44:34.488Z,99822.84
2019-05-06T14:47:04.368Z,99828.04
2019-05-06T14:49:43.131Z,99824.84
2019-05-06T14:52:13.481Z,99818.16
2019-05-06T14:54:45.205Z,99828.33
2019-05-06T14:57:16.168Z,99829.97
2019-05-06T14:59:46.697Z,99825.23
2019-05-06T15:02:17.550Z,99829.39
2019-05-06T15:04:47.688Z,99828.16
2019-05-06T15:07:17.906Z,99819.06
2019-05-06T15:09:58.382Z,99820.02
2019-05-06T15:12:22.697Z,99814.64
2019-05-06T15:14:52.699Z,99823.84
2019-05-06T15:17:24.417Z,99826.77
2019-05-06T15:19:54.449Z,99829.39
2019-05-06T15:22:24.853Z,99833.05
2019-05-06T15:24:54.866Z,99825.19
2019-05-06T15:27:26.432Z,99827.88
2019-05-06T15:29:58.138Z,99825.99
2019-05-06T15:32:32.588Z,99827.11
2019-05-06T15:35:12.929Z,99826.63
2019-05-06T15:37:44.518Z,99815.97
2019-05-06T15:40:30.175Z,99826.11
2019-05-06T15:42:47.977Z,99819.96
2019-05-06T15:45:18.173Z,99819.96
2019-05-06T15:47:52.122Z,99822.94
2019-05-06T15:50:23.068Z,99818.66
2019-05-06T15:52:54.060Z,99819.30
2019-05-06T15:55:24.164Z,99816.48
2019-05-06T15:57:54.252Z,99816.48
2019-05-06T16:00:24.265Z,99814.50
2019-05-06T16:02:56.390Z,99827.98
2019-05-06T16:05:26.664Z,99815.84
2019-05-06T16:07:57.160Z,99817.95
2019-05-06T16:10:27.629Z,99821.24
2019-05-06T16:12:58.547Z,99819.53
2019-05-06T16:15:29.766Z,99823.58
2019-05-06T16:18:02.281Z,99828.38
2019-05-06T16:20:33.184Z,99831.66
2019-05-06T16:23:14.717Z,99827.63
2019-05-06T16:25:44.978Z,99828.85
2019-05-06T16:28:16.609Z,99827.55
2019-05-06T16:30:47.878Z,99821.02
2019-05-06T16:33:19.072Z,99829.90
2019-05-06T16:35:49.268Z,99831.77
2019-05-06T16:38:19.368Z,99821.38
2019-05-06T16:40:49.387Z,99825.41
2019-05-06T16:43:22.005Z,99835.22
2019-05-06T16:45:53.197Z,99823.83
2019-05-06T16:48:22.772Z,99822.56
2019-05-06T16:50:52.886Z,99822.95
2019-05-06T16:53:23.100Z,99832.51
2019-05-06T16:56:04.056Z,99823.07
2019-05-06T16:58:47.632Z,99814.86
2019-05-06T17:01:17.978Z,99815.84
2019-05-06T17:03:52.542Z,99816.52
2019-05-06T17:06:28.448Z,99813.30
2019-05-06T17:08:58.482Z,99809.80
2019-05-06T17:11:31.929Z,99812.11
2019-05-06T17:14:00.218Z,99809.80
2019-05-06T17:16:34.028Z,99801.59
2019-05-06T17:19:05.275Z,99799.25
2019-05-06T17:21:35.501Z,99805.52
2019-05-06T17:24:05.614Z,99807.73
2019-05-06T17:26:35.781Z,99812.41
2019-05-06T17:29:05.677Z,99815.47
2019-05-06T17:31:42.260Z,99814.03
2019-05-06T17:34:13.192Z,99814.88
2019-05-06T17:36:43.790Z,99815.27
2019-05-06T17:39:14.823Z,99819.47
2019-05-06T17:41:48.935Z,99815.42
2019-05-06T17:44:17.888Z,99821.65
2019-05-06T17:46:59.515Z,99821.77
2019-05-06T17:49:34.021Z,99824.47
2019-05-06T17:52:17.878Z,99814.30
2019-05-06T17:54:48.011Z,99822.05
2019-05-06T17:57:18.027Z,99815.66
2019-05-06T17:59:48.121Z,99821.80
2019-05-06T18:02:22.659Z,99824.02
2019-05-06T18:04:53.322Z,99823.06
2019-05-06T18:07:23.403Z,99820.24
2019-05-06T18:09:53.417Z,99821.72
2019-05-06T18:12:23.508Z,99820.00
2019-05-06T18:14:56.320Z,99812.39
2019-05-06T18:17:29.127Z,99820.48
2019-05-06T18:19:58.983Z,99819.67
2019-05-06T18:22:29.149Z,99822.38
2019-05-06T18:24:59.014Z,99817.45
2019-05-06T18:27:29.090Z,99809.59
2019-05-06T18:30:11.390Z,99814.88
2019-05-06T18:32:32.632Z,99810.58
2019-05-06T18:35:02.778Z,99813.07
2019-05-06T18:37:33.333Z,99814.03
2019-05-06T18:40:03.857Z,99816.01
2019-05-06T18:42:33.855Z,99811.95
2019-05-06T18:45:04.247Z,99815.92
2019-05-06T18:47:34.251Z,99806.08
2019-05-06T18:50:05.284Z,99808.53
2019-05-06T18:52:35.282Z,99806.23
2019-05-06T18:55:05.923Z,99817.03
2019-05-06T18:57:37.835Z,99803.88
2019-05-06T19:00:08.848Z,99809.89
2019-05-06T19:02:42.275Z,99809.89
2019-05-06T19:05:14.201Z,99814.92
2019-05-06T19:07:46.737Z,99811.36
2019-05-06T19:10:17.638Z,99820.20
2019-05-06T19:12:47.905Z,99817.38
2019-05-06T19:15:18.090Z,99820.47
2019-05-06T19:17:47.763Z,99812.97
2019-05-06T19:20:17.403Z,99812.85
2019-05-06T19:22:47.201Z,99815.43
2019-05-06T19:25:16.744Z,99815.55
2019-05-06T19:27:46.239Z,99822.70
2019-05-06T19:30:16.026Z,99819.25
2019-05-06T19:32:45.790Z,99816.69
2019-05-06T19:35:16.437Z,99825.39
2019-05-06T19:37:47.889Z,99826.83
2019-05-06T19:40:17.186Z,99825.87
2019-05-06T19:42:50.033Z,99832.50
2019-05-06T19:45:17.850Z,99833.87
2019-05-06T19:47:47.487Z,99837.57
2019-05-06T19:50:17.009Z,99841.98
2019-05-06T19:52:46.506Z,99839.52
2019-05-06T19:55:16.287Z,99838.80
2019-05-06T19:57:45.983Z,99841.23
2019-05-06T20:00:16.673Z,99841.23
2019-05-06T20:02:46.482Z,99843.57
2019-05-06T20:05:31.379Z,99842.83
2019-05-06T20:08:16.362Z,99841.08
2019-05-06T20:11:04.025Z,99835.33
2019-05-06T20:13:33.732Z,99844.66
2019-05-06T20:16:03.347Z,99838.75
2019-05-06T20:18:32.927Z,99838.30
2019-05-06T20:21:02.626Z,99837.55
2019-05-06T20:23:32.843Z,99832.00
2019-05-06T20:26:03.569Z,99838.02
2019-05-06T20:28:33.132Z,99836.88
2019-05-06T20:31:02.727Z,99832.95
2019-05-06T20:33:32.779Z,99836.17
2019-05-06T20:36:02.343Z,99838.36
2019-05-06T20:38:33.616Z,99840.07
2019-05-06T20:41:03.175Z,99834.81
2019-05-06T20:43:32.969Z,99831.34
2019-05-06T20:46:02.812Z,99831.82
2019-05-06T20:48:32.868Z,99833.53
2019-05-06T20:51:03.577Z,99839.44
2019-05-06T20:53:34.046Z,99837.58
2019-05-06T20:56:03.800Z,99830.95
2019-05-06T20:58:34.066Z,99832.30
2019-05-06T21:01:05.185Z,99824.45
2019-05-06T21:03:36.349Z,99828.49
2019-05-06T21:06:05.800Z,99825.87
2019-05-06T21:08:35.507Z,99826.99
2019-05-06T21:11:06.374Z,99827.95
2019-05-06T21:13:36.949Z,99822.20
2019-05-06T21:16:07.125Z,99821.80
2019-05-06T21:18:36.648Z,99825.77
2019-05-06T21:21:06.091Z,99824.41
2019-05-06T21:23:37.733Z,99819.10
2019-05-06T21:26:07.802Z,99819.97
2019-05-06T21:28:38.157Z,99821.05
2019-05-06T21:31:07.813Z,99818.59
2019-05-06T21:33:37.179Z,99815.90
2019-05-06T21:36:06.585Z,99816.88
2019-05-06T21:38:36.059Z,99819.47
2019-05-06T21:41:05.560Z,99811.37
2019-05-06T21:43:46.330Z,99817.72
2019-05-06T21:46:08.319Z,99818.23
2019-05-06T21:48:37.735Z,99818.11
2019-05-06T21:51:07.484Z,99814.06
2019-05-06T21:53:37.198Z,99814.28
2019-05-06T21:56:06.595Z,99812.33
2019-05-06T21:58:36.043Z,99815.63
2019-05-06T22:01:07.192Z,99814.19
2019-05-06T22:03:37.340Z,99811.09
2019-05-06T22:06:06.902Z,99805.34
2019-05-06T22:08:36.616Z,99804.35
2019-05-06T22:11:05.944Z,99801.77
2019-05-06T22:13:35.512Z,99802.25
2019-05-06T22:16:05.072Z,99801.89
2019-05-06T22:18:34.621Z,99800.91
2019-05-06T22:21:09.730Z,99797.45
2019-05-06T22:23:51.217Z,99799.67
2019-05-06T22:26:23.106Z,99793.80
2019-05-06T22:28:52.743Z,99790.98
2019-05-06T22:31:25.632Z,99795.50
2019-05-06T22:33:56.200Z,99788.76
2019-05-06T22:36:25.834Z,99789.98
2019-05-06T22:38:55.525Z,99785.19
2019-05-06T22:41:25.600Z,99783.09
2019-05-06T22:43:55.137Z,99783.84
2019-05-06T22:46:24.856Z,99779.05
2019-05-06T22:48:55.462Z,99776.95
2019-05-06T22:51:26.842Z,99775.36
2019-05-06T22:53:56.340Z,99769.48
2019-05-06T22:56:27.523Z,99771.19
2019-05-06T22:58:57.464Z,99772.66
2019-05-06T23:01:43.075Z,99772.78
2019-05-06T23:04:13.390Z,99771.79
2019-05-06T23:06:44.654Z,99770.08
2019-05-06T23:09:14.173Z,99764.17
2019-05-06T23:11:43.650Z,99767.27
2019-05-06T23:14:27.650Z,99764.69
2019-05-06T23:16:44.741Z,99761.98
2019-05-06T23:19:16.212Z,99759.77
2019-05-06T23:21:46.172Z,99758.55
2019-05-06T23:24:18.550Z,99767.86
2019-05-06T23:26:48.340Z,99761.12
2019-05-06T23:29:18.118Z,99758.55
2019-05-06T23:31:47.875Z,99759.38
2019-05-06T23:34:17.334Z,99761.72
2019-05-06T23:37:02.665Z,99763.07
2019-05-06T23:40:28.465Z,99757.20
2019-05-06T23:43:52.847Z,99758.15
2019-05-06T23:47:17.988Z,99751.17
2019-05-06T23:50:42.839Z,99760.48
2019-05-06T23:54:06.596Z,99747.60
2019-05-06T23:56:43.376Z,99750.42
2019-05-06T23:59:18.407Z,99750.42
